New Matamoras, Ohio
Current Conditions -  °F | °C
As of 1:53 PM on Thursday 23 Oct 2014 (Local Time) from KPKB Reporting Station
Overcast Overcast  
Wind Chill: 55°   Ceiling: 2700
Heat Index: 55°   Visibility: 10mi
Dew Point: 43°   Wind: 9mph
Humidity: 64%   Direction: 330°NNW
Pressure: 30.19"   Gusts: NA
Location:  39.52°N, 81.07°W
Report Text: KPKB 231753Z 33008KT 10SM OVC027 13/06 A3019 RMK AO2 SLP223 T01280061 10133 20072 58017
Loading
Personal Weather Stations






























Interactive Weather Map
Tropical Storm Tracking
New forecast layout! Learn more

10-Day Weather Forecast

Advertisements
Track Severe Weather on mobile